sensor_id;sensor_type;location;lat;lon;timestamp;P1;durP1;ratioP1;P2;durP2;ratioP2
61840;SDS011;47773;53.174;6.614;2023-07-09T00:00:13;30.17;;;13.57;;
61840;SDS011;47773;53.174;6.614;2023-07-09T00:02:41;21.75;;;12.43;;
61840;SDS011;47773;53.174;6.614;2023-07-09T00:05:16;24.83;;;12.38;;
61840;SDS011;47773;53.174;6.614;2023-07-09T00:07:43;24.52;;;12.45;;
61840;SDS011;47773;53.174;6.614;2023-07-09T00:10:14;23.25;;;12.00;;
61840;SDS011;47773;53.174;6.614;2023-07-09T00:12:44;26.92;;;12.80;;
61840;SDS011;47773;53.174;6.614;2023-07-09T00:15:12;24.05;;;12.40;;
61840;SDS011;47773;53.174;6.614;2023-07-09T00:17:38;21.65;;;12.18;;
61840;SDS011;47773;53.174;6.614;2023-07-09T00:20:10;23.00;;;12.95;;
61840;SDS011;47773;53.174;6.614;2023-07-09T00:22:39;26.17;;;12.48;;
61840;SDS011;47773;53.174;6.614;2023-07-09T00:25:07;18.50;;;11.88;;
61840;SDS011;47773;53.174;6.614;2023-07-09T00:27:42;17.40;;;12.18;;
61840;SDS011;47773;53.174;6.614;2023-07-09T00:30:18;20.88;;;11.80;;
61840;SDS011;47773;53.174;6.614;2023-07-09T00:32:47;25.73;;;11.82;;
61840;SDS011;47773;53.174;6.614;2023-07-09T00:35:13;20.52;;;12.02;;
61840;SDS011;47773;53.174;6.614;2023-07-09T00:37:40;20.13;;;11.77;;
61840;SDS011;47773;53.174;6.614;2023-07-09T00:40:18;21.00;;;11.98;;
61840;SDS011;47773;53.174;6.614;2023-07-09T00:42:46;24.58;;;12.48;;
61840;SDS011;47773;53.174;6.614;2023-07-09T00:45:17;21.42;;;12.23;;
61840;SDS011;47773;53.174;6.614;2023-07-09T00:48:02;19.27;;;12.35;;
61840;SDS011;47773;53.174;6.614;2023-07-09T00:50:39;17.80;;;11.68;;
61840;SDS011;47773;53.174;6.614;2023-07-09T00:53:44;25.75;;;12.05;;
61840;SDS011;47773;53.174;6.614;2023-07-09T00:56:11;22.05;;;12.32;;
61840;SDS011;47773;53.174;6.614;2023-07-09T00:58:42;19.80;;;12.02;;
61840;SDS011;47773;53.174;6.614;2023-07-09T01:01:12;25.25;;;12.35;;
61840;SDS011;47773;53.174;6.614;2023-07-09T01:03:50;22.45;;;12.27;;
61840;SDS011;47773;53.174;6.614;2023-07-09T01:06:23;24.88;;;12.80;;
61840;SDS011;47773;53.174;6.614;2023-07-09T01:09:04;21.65;;;11.93;;
61840;SDS011;47773;53.174;6.614;2023-07-09T01:11:31;23.90;;;12.93;;
61840;SDS011;47773;53.174;6.614;2023-07-09T01:13:58;25.77;;;12.77;;
61840;SDS011;47773;53.174;6.614;2023-07-09T01:16:37;24.50;;;12.30;;
61840;SDS011;47773;53.174;6.614;2023-07-09T01:19:04;21.67;;;11.55;;
61840;SDS011;47773;53.174;6.614;2023-07-09T01:21:30;22.77;;;11.80;;
61840;SDS011;47773;53.174;6.614;2023-07-09T01:23:57;20.08;;;11.52;;
61840;SDS011;47773;53.174;6.614;2023-07-09T01:26:25;26.73;;;12.75;;
61840;SDS011;47773;53.174;6.614;2023-07-09T01:28:53;23.67;;;11.75;;
61840;SDS011;47773;53.174;6.614;2023-07-09T01:31:20;19.38;;;11.77;;
61840;SDS011;47773;53.174;6.614;2023-07-09T01:33:47;22.95;;;11.60;;
61840;SDS011;47773;53.174;6.614;2023-07-09T01:36:14;21.48;;;11.82;;
61840;SDS011;47773;53.174;6.614;2023-07-09T01:38:48;20.33;;;12.15;;
61840;SDS011;47773;53.174;6.614;2023-07-09T01:41:15;24.83;;;13.63;;
61840;SDS011;47773;53.174;6.614;2023-07-09T01:43:41;22.08;;;12.45;;
61840;SDS011;47773;53.174;6.614;2023-07-09T01:46:08;20.42;;;11.52;;
61840;SDS011;47773;53.174;6.614;2023-07-09T01:48:34;22.88;;;12.23;;
61840;SDS011;47773;53.174;6.614;2023-07-09T01:51:06;20.58;;;12.50;;
61840;SDS011;47773;53.174;6.614;2023-07-09T01:53:37;20.75;;;11.77;;
61840;SDS011;47773;53.174;6.614;2023-07-09T01:56:04;22.67;;;13.20;;
61840;SDS011;47773;53.174;6.614;2023-07-09T01:58:32;20.30;;;13.35;;
61840;SDS011;47773;53.174;6.614;2023-07-09T02:00:59;23.35;;;12.48;;
61840;SDS011;47773;53.174;6.614;2023-07-09T02:03:25;20.52;;;12.20;;
61840;SDS011;47773;53.174;6.614;2023-07-09T02:05:52;26.35;;;12.10;;
61840;SDS011;47773;53.174;6.614;2023-07-09T02:08:18;23.98;;;12.35;;
61840;SDS011;47773;53.174;6.614;2023-07-09T02:10:44;19.90;;;12.07;;
61840;SDS011;47773;53.174;6.614;2023-07-09T02:13:12;20.83;;;12.30;;
61840;SDS011;47773;53.174;6.614;2023-07-09T02:15:39;24.70;;;11.73;;
61840;SDS011;47773;53.174;6.614;2023-07-09T02:18:08;22.52;;;12.82;;
61840;SDS011;47773;53.174;6.614;2023-07-09T02:20:34;22.55;;;12.57;;
61840;SDS011;47773;53.174;6.614;2023-07-09T02:23:00;19.17;;;11.77;;
61840;SDS011;47773;53.174;6.614;2023-07-09T02:25:26;23.30;;;12.27;;
61840;SDS011;47773;53.174;6.614;2023-07-09T02:27:52;21.20;;;11.52;;
61840;SDS011;47773;53.174;6.614;2023-07-09T02:30:18;17.95;;;11.30;;
61840;SDS011;47773;53.174;6.614;2023-07-09T02:32:43;21.83;;;12.35;;
61840;SDS011;47773;53.174;6.614;2023-07-09T02:35:09;18.70;;;11.73;;
61840;SDS011;47773;53.174;6.614;2023-07-09T02:37:35;18.40;;;12.02;;
61840;SDS011;47773;53.174;6.614;2023-07-09T02:40:02;22.17;;;12.50;;
61840;SDS011;47773;53.174;6.614;2023-07-09T02:42:29;22.23;;;11.95;;
61840;SDS011;47773;53.174;6.614;2023-07-09T02:44:55;21.17;;;12.40;;
61840;SDS011;47773;53.174;6.614;2023-07-09T02:47:21;20.35;;;12.73;;
61840;SDS011;47773;53.174;6.614;2023-07-09T02:49:47;22.40;;;11.05;;
61840;SDS011;47773;53.174;6.614;2023-07-09T02:52:12;18.17;;;11.77;;
61840;SDS011;47773;53.174;6.614;2023-07-09T02:54:38;20.88;;;11.77;;
61840;SDS011;47773;53.174;6.614;2023-07-09T02:57:04;21.88;;;11.82;;
61840;SDS011;47773;53.174;6.614;2023-07-09T02:59:30;21.17;;;12.00;;
61840;SDS011;47773;53.174;6.614;2023-07-09T03:01:56;24.33;;;12.90;;
61840;SDS011;47773;53.174;6.614;2023-07-09T03:04:22;20.08;;;12.85;;
61840;SDS011;47773;53.174;6.614;2023-07-09T03:06:48;23.02;;;13.02;;
61840;SDS011;47773;53.174;6.614;2023-07-09T03:09:14;23.42;;;12.88;;
61840;SDS011;47773;53.174;6.614;2023-07-09T03:11:39;24.45;;;12.77;;
61840;SDS011;47773;53.174;6.614;2023-07-09T03:14:05;19.33;;;12.20;;
61840;SDS011;47773;53.174;6.614;2023-07-09T03:16:31;22.08;;;12.18;;
61840;SDS011;47773;53.174;6.614;2023-07-09T03:18:58;28.45;;;13.98;;
61840;SDS011;47773;53.174;6.614;2023-07-09T03:21:25;22.55;;;12.07;;
61840;SDS011;47773;53.174;6.614;2023-07-09T03:23:52;26.70;;;12.98;;
61840;SDS011;47773;53.174;6.614;2023-07-09T03:26:19;25.70;;;13.70;;
61840;SDS011;47773;53.174;6.614;2023-07-09T03:28:45;25.02;;;13.77;;
61840;SDS011;47773;53.174;6.614;2023-07-09T03:31:11;21.88;;;13.38;;
61840;SDS011;47773;53.174;6.614;2023-07-09T03:33:36;23.67;;;13.05;;
61840;SDS011;47773;53.174;6.614;2023-07-09T03:36:02;26.80;;;13.98;;
61840;SDS011;47773;53.174;6.614;2023-07-09T03:38:29;20.05;;;12.70;;
61840;SDS011;47773;53.174;6.614;2023-07-09T03:40:55;27.33;;;13.07;;
61840;SDS011;47773;53.174;6.614;2023-07-09T03:43:22;21.23;;;12.80;;
61840;SDS011;47773;53.174;6.614;2023-07-09T03:45:48;25.63;;;14.18;;
61840;SDS011;47773;53.174;6.614;2023-07-09T03:48:16;25.00;;;13.25;;
61840;SDS011;47773;53.174;6.614;2023-07-09T03:50:44;20.83;;;13.60;;
61840;SDS011;47773;53.174;6.614;2023-07-09T03:53:11;24.75;;;14.20;;
61840;SDS011;47773;53.174;6.614;2023-07-09T03:55:37;22.77;;;13.82;;
61840;SDS011;47773;53.174;6.614;2023-07-09T03:58:03;22.42;;;13.55;;
61840;SDS011;47773;53.174;6.614;2023-07-09T04:00:30;21.33;;;13.20;;
61840;SDS011;47773;53.174;6.614;2023-07-09T04:02:56;24.27;;;13.40;;
61840;SDS011;47773;53.174;6.614;2023-07-09T04:05:24;30.83;;;13.32;;
61840;SDS011;47773;53.174;6.614;2023-07-09T04:07:51;22.35;;;13.13;;
61840;SDS011;47773;53.174;6.614;2023-07-09T04:10:17;22.83;;;13.55;;
61840;SDS011;47773;53.174;6.614;2023-07-09T04:12:43;19.58;;;12.63;;
61840;SDS011;47773;53.174;6.614;2023-07-09T04:15:09;29.05;;;13.52;;
61840;SDS011;47773;53.174;6.614;2023-07-09T04:17:37;23.08;;;13.70;;
61840;SDS011;47773;53.174;6.614;2023-07-09T04:20:04;21.77;;;12.73;;
61840;SDS011;47773;53.174;6.614;2023-07-09T04:22:31;26.88;;;13.10;;
61840;SDS011;47773;53.174;6.614;2023-07-09T04:24:57;19.20;;;12.48;;
61840;SDS011;47773;53.174;6.614;2023-07-09T04:27:23;22.80;;;13.90;;
61840;SDS011;47773;53.174;6.614;2023-07-09T04:29:52;20.23;;;12.60;;
61840;SDS011;47773;53.174;6.614;2023-07-09T04:32:19;23.70;;;12.98;;
61840;SDS011;47773;53.174;6.614;2023-07-09T04:34:45;20.90;;;12.75;;
61840;SDS011;47773;53.174;6.614;2023-07-09T04:37:11;21.38;;;12.95;;
61840;SDS011;47773;53.174;6.614;2023-07-09T04:39:38;20.17;;;13.13;;
61840;SDS011;47773;53.174;6.614;2023-07-09T04:42:09;22.88;;;13.05;;
61840;SDS011;47773;53.174;6.614;2023-07-09T04:44:36;20.48;;;13.05;;
61840;SDS011;47773;53.174;6.614;2023-07-09T04:47:02;21.48;;;12.93;;
61840;SDS011;47773;53.174;6.614;2023-07-09T04:49:28;23.10;;;12.85;;
61840;SDS011;47773;53.174;6.614;2023-07-09T04:51:53;23.48;;;13.32;;
61840;SDS011;47773;53.174;6.614;2023-07-09T04:54:21;19.88;;;12.20;;
61840;SDS011;47773;53.174;6.614;2023-07-09T04:56:50;21.20;;;13.02;;
61840;SDS011;47773;53.174;6.614;2023-07-09T04:59:16;23.35;;;12.93;;
61840;SDS011;47773;53.174;6.614;2023-07-09T05:01:41;19.85;;;13.10;;
61840;SDS011;47773;53.174;6.614;2023-07-09T05:04:07;22.63;;;12.57;;
61840;SDS011;47773;53.174;6.614;2023-07-09T05:06:34;24.90;;;13.57;;
61840;SDS011;47773;53.174;6.614;2023-07-09T05:09:00;23.40;;;12.65;;
61840;SDS011;47773;53.174;6.614;2023-07-09T05:11:25;21.98;;;13.15;;
61840;SDS011;47773;53.174;6.614;2023-07-09T05:13:51;17.50;;;12.90;;
61840;SDS011;47773;53.174;6.614;2023-07-09T05:16:17;19.45;;;11.77;;
61840;SDS011;47773;53.174;6.614;2023-07-09T05:18:44;23.70;;;12.63;;
61840;SDS011;47773;53.174;6.614;2023-07-09T05:21:11;17.90;;;12.20;;
61840;SDS011;47773;53.174;6.614;2023-07-09T05:23:37;25.50;;;11.43;;
61840;SDS011;47773;53.174;6.614;2023-07-09T05:26:03;18.85;;;11.13;;
61840;SDS011;47773;53.174;6.614;2023-07-09T05:28:29;20.80;;;11.68;;
61840;SDS011;47773;53.174;6.614;2023-07-09T05:30:57;22.25;;;11.75;;
61840;SDS011;47773;53.174;6.614;2023-07-09T05:33:23;20.60;;;12.07;;
61840;SDS011;47773;53.174;6.614;2023-07-09T05:35:49;21.00;;;11.07;;
61840;SDS011;47773;53.174;6.614;2023-07-09T05:38:14;19.50;;;11.38;;
61840;SDS011;47773;53.174;6.614;2023-07-09T05:40:41;20.42;;;11.35;;
61840;SDS011;47773;53.174;6.614;2023-07-09T05:43:07;26.40;;;11.30;;
61840;SDS011;47773;53.174;6.614;2023-07-09T05:45:34;22.42;;;12.35;;
61840;SDS011;47773;53.174;6.614;2023-07-09T05:48:00;26.17;;;11.30;;
61840;SDS011;47773;53.174;6.614;2023-07-09T05:50:26;19.05;;;11.13;;
61840;SDS011;47773;53.174;6.614;2023-07-09T05:52:53;17.05;;;10.90;;
61840;SDS011;47773;53.174;6.614;2023-07-09T05:55:19;18.70;;;11.50;;
61840;SDS011;47773;53.174;6.614;2023-07-09T05:57:44;19.85;;;11.07;;
61840;SDS011;47773;53.174;6.614;2023-07-09T06:00:10;19.00;;;11.32;;
61840;SDS011;47773;53.174;6.614;2023-07-09T06:02:37;15.85;;;10.98;;
61840;SDS011;47773;53.174;6.614;2023-07-09T06:05:03;17.73;;;11.85;;
61840;SDS011;47773;53.174;6.614;2023-07-09T06:07:30;22.52;;;11.48;;
61840;SDS011;47773;53.174;6.614;2023-07-09T06:09:55;18.50;;;11.02;;
61840;SDS011;47773;53.174;6.614;2023-07-09T06:12:22;19.30;;;11.40;;
61840;SDS011;47773;53.174;6.614;2023-07-09T06:14:48;20.67;;;12.02;;
61840;SDS011;47773;53.174;6.614;2023-07-09T06:17:14;18.13;;;11.20;;
61840;SDS011;47773;53.174;6.614;2023-07-09T06:19:40;19.95;;;11.38;;
61840;SDS011;47773;53.174;6.614;2023-07-09T06:22:06;21.90;;;11.50;;
61840;SDS011;47773;53.174;6.614;2023-07-09T06:24:31;21.92;;;12.38;;
61840;SDS011;47773;53.174;6.614;2023-07-09T06:26:57;21.17;;;11.27;;
61840;SDS011;47773;53.174;6.614;2023-07-09T06:29:24;18.17;;;11.50;;
61840;SDS011;47773;53.174;6.614;2023-07-09T06:31:50;17.85;;;11.55;;
61840;SDS011;47773;53.174;6.614;2023-07-09T06:34:16;18.77;;;10.52;;
61840;SDS011;47773;53.174;6.614;2023-07-09T06:36:41;23.00;;;10.60;;
61840;SDS011;47773;53.174;6.614;2023-07-09T06:39:07;23.40;;;12.32;;
61840;SDS011;47773;53.174;6.614;2023-07-09T06:41:33;19.85;;;12.25;;
61840;SDS011;47773;53.174;6.614;2023-07-09T06:44:04;18.75;;;12.13;;
61840;SDS011;47773;53.174;6.614;2023-07-09T06:46:31;20.05;;;12.30;;
61840;SDS011;47773;53.174;6.614;2023-07-09T06:48:56;30.60;;;12.90;;
61840;SDS011;47773;53.174;6.614;2023-07-09T06:51:22;22.60;;;11.48;;
61840;SDS011;47773;53.174;6.614;2023-07-09T06:53:48;23.73;;;11.45;;
61840;SDS011;47773;53.174;6.614;2023-07-09T06:56:15;25.45;;;12.63;;
61840;SDS011;47773;53.174;6.614;2023-07-09T06:58:41;24.30;;;12.13;;
61840;SDS011;47773;53.174;6.614;2023-07-09T07:01:07;19.15;;;12.13;;
61840;SDS011;47773;53.174;6.614;2023-07-09T07:03:35;22.90;;;12.07;;
61840;SDS011;47773;53.174;6.614;2023-07-09T07:06:00;21.80;;;12.18;;
61840;SDS011;47773;53.174;6.614;2023-07-09T07:08:26;17.25;;;11.48;;
61840;SDS011;47773;53.174;6.614;2023-07-09T07:10:57;19.35;;;10.82;;
61840;SDS011;47773;53.174;6.614;2023-07-09T07:13:31;21.67;;;12.07;;
61840;SDS011;47773;53.174;6.614;2023-07-09T07:16:00;19.42;;;11.27;;
61840;SDS011;47773;53.174;6.614;2023-07-09T07:18:26;23.05;;;12.07;;
61840;SDS011;47773;53.174;6.614;2023-07-09T07:20:52;25.10;;;12.00;;
61840;SDS011;47773;53.174;6.614;2023-07-09T07:23:17;25.95;;;11.75;;
61840;SDS011;47773;53.174;6.614;2023-07-09T07:25:47;21.45;;;11.40;;
61840;SDS011;47773;53.174;6.614;2023-07-09T07:28:13;21.33;;;11.57;;
61840;SDS011;47773;53.174;6.614;2023-07-09T07:30:39;22.73;;;12.02;;
61840;SDS011;47773;53.174;6.614;2023-07-09T07:33:05;26.27;;;13.40;;
61840;SDS011;47773;53.174;6.614;2023-07-09T07:35:31;26.38;;;12.38;;
61840;SDS011;47773;53.174;6.614;2023-07-09T07:37:57;32.78;;;14.38;;
61840;SDS011;47773;53.174;6.614;2023-07-09T07:40:22;28.00;;;13.00;;
61840;SDS011;47773;53.174;6.614;2023-07-09T07:42:48;21.33;;;11.98;;
61840;SDS011;47773;53.174;6.614;2023-07-09T07:45:14;22.17;;;13.45;;
61840;SDS011;47773;53.174;6.614;2023-07-09T07:47:39;24.88;;;12.88;;
61840;SDS011;47773;53.174;6.614;2023-07-09T07:50:06;24.00;;;13.45;;
61840;SDS011;47773;53.174;6.614;2023-07-09T07:52:32;24.63;;;13.38;;
61840;SDS011;47773;53.174;6.614;2023-07-09T07:55:01;21.45;;;12.82;;
61840;SDS011;47773;53.174;6.614;2023-07-09T07:57:27;25.48;;;12.40;;
61840;SDS011;47773;53.174;6.614;2023-07-09T07:59:53;28.33;;;12.48;;
61840;SDS011;47773;53.174;6.614;2023-07-09T08:02:18;24.58;;;12.43;;
61840;SDS011;47773;53.174;6.614;2023-07-09T08:04:44;28.00;;;12.40;;
61840;SDS011;47773;53.174;6.614;2023-07-09T08:07:10;27.23;;;13.05;;
61840;SDS011;47773;53.174;6.614;2023-07-09T08:09:36;22.45;;;12.90;;
61840;SDS011;47773;53.174;6.614;2023-07-09T08:12:02;21.08;;;12.57;;
61840;SDS011;47773;53.174;6.614;2023-07-09T08:14:35;29.05;;;12.90;;
61840;SDS011;47773;53.174;6.614;2023-07-09T08:17:01;23.77;;;13.18;;
61840;SDS011;47773;53.174;6.614;2023-07-09T08:19:27;29.27;;;13.32;;
61840;SDS011;47773;53.174;6.614;2023-07-09T08:21:53;24.90;;;12.90;;
61840;SDS011;47773;53.174;6.614;2023-07-09T08:24:18;21.58;;;13.30;;
61840;SDS011;47773;53.174;6.614;2023-07-09T08:26:44;29.65;;;13.50;;
61840;SDS011;47773;53.174;6.614;2023-07-09T08:29:10;22.02;;;13.40;;
61840;SDS011;47773;53.174;6.614;2023-07-09T08:31:35;24.58;;;12.98;;
61840;SDS011;47773;53.174;6.614;2023-07-09T08:34:01;33.00;;;13.80;;
61840;SDS011;47773;53.174;6.614;2023-07-09T08:36:27;28.70;;;13.50;;
61840;SDS011;47773;53.174;6.614;2023-07-09T08:38:53;28.98;;;13.13;;
61840;SDS011;47773;53.174;6.614;2023-07-09T08:49:47;31.02;;;13.98;;
61840;SDS011;47773;53.174;6.614;2023-07-09T08:55:01;28.15;;;14.40;;
61840;SDS011;47773;53.174;6.614;2023-07-09T08:57:34;31.58;;;15.13;;
61840;SDS011;47773;53.174;6.614;2023-07-09T09:02:49;32.08;;;14.07;;
61840;SDS011;47773;53.174;6.614;2023-07-09T09:05:18;28.08;;;15.02;;
61840;SDS011;47773;53.174;6.614;2023-07-09T09:07:47;36.72;;;15.68;;
61840;SDS011;47773;53.174;6.614;2023-07-09T09:10:39;33.67;;;15.50;;
61840;SDS011;47773;53.174;6.614;2023-07-09T09:13:13;32.08;;;15.30;;
61840;SDS011;47773;53.174;6.614;2023-07-09T09:15:41;28.27;;;16.13;;
61840;SDS011;47773;53.174;6.614;2023-07-09T09:20:42;33.63;;;16.52;;
61840;SDS011;47773;53.174;6.614;2023-07-09T09:23:15;35.42;;;16.92;;
61840;SDS011;47773;53.174;6.614;2023-07-09T09:28:10;38.80;;;18.35;;
61840;SDS011;47773;53.174;6.614;2023-07-09T09:30:36;30.65;;;16.70;;
61840;SDS011;47773;53.174;6.614;2023-07-09T09:33:05;33.72;;;17.17;;
61840;SDS011;47773;53.174;6.614;2023-07-09T09:35:33;38.03;;;19.30;;
61840;SDS011;47773;53.174;6.614;2023-07-09T09:38:01;36.65;;;17.95;;
61840;SDS011;47773;53.174;6.614;2023-07-09T09:40:28;40.85;;;18.17;;
61840;SDS011;47773;53.174;6.614;2023-07-09T09:42:58;38.47;;;17.90;;
61840;SDS011;47773;53.174;6.614;2023-07-09T09:45:26;37.67;;;18.92;;
61840;SDS011;47773;53.174;6.614;2023-07-09T09:48:37;34.60;;;19.13;;
61840;SDS011;47773;53.174;6.614;2023-07-09T09:50:57;38.15;;;18.73;;
61840;SDS011;47773;53.174;6.614;2023-07-09T09:53:26;36.58;;;18.05;;
61840;SDS011;47773;53.174;6.614;2023-07-09T09:55:53;39.10;;;19.75;;
61840;SDS011;47773;53.174;6.614;2023-07-09T09:58:24;43.05;;;21.50;;
61840;SDS011;47773;53.174;6.614;2023-07-09T10:00:55;46.00;;;21.48;;
61840;SDS011;47773;53.174;6.614;2023-07-09T10:03:31;45.47;;;24.85;;
61840;SDS011;47773;53.174;6.614;2023-07-09T10:05:59;48.35;;;22.02;;
61840;SDS011;47773;53.174;6.614;2023-07-09T10:08:52;47.28;;;21.70;;
61840;SDS011;47773;53.174;6.614;2023-07-09T10:14:05;44.50;;;24.35;;
61840;SDS011;47773;53.174;6.614;2023-07-09T10:16:41;43.20;;;23.13;;
61840;SDS011;47773;53.174;6.614;2023-07-09T10:22:20;36.60;;;21.33;;
61840;SDS011;47773;53.174;6.614;2023-07-09T10:24:58;41.72;;;22.67;;
61840;SDS011;47773;53.174;6.614;2023-07-09T10:30:49;43.28;;;23.15;;
61840;SDS011;47773;53.174;6.614;2023-07-09T10:33:26;52.17;;;22.90;;
61840;SDS011;47773;53.174;6.614;2023-07-09T10:41:33;46.80;;;23.83;;
61840;SDS011;47773;53.174;6.614;2023-07-09T10:44:06;40.78;;;24.15;;
61840;SDS011;47773;53.174;6.614;2023-07-09T10:46:53;48.80;;;25.08;;
61840;SDS011;47773;53.174;6.614;2023-07-09T10:49:23;45.47;;;25.65;;
61840;SDS011;47773;53.174;6.614;2023-07-09T10:52:05;38.85;;;23.75;;
61840;SDS011;47773;53.174;6.614;2023-07-09T10:54:52;41.53;;;24.25;;
61840;SDS011;47773;53.174;6.614;2023-07-09T10:57:22;41.70;;;23.90;;
61840;SDS011;47773;53.174;6.614;2023-07-09T10:59:55;52.97;;;26.15;;
61840;SDS011;47773;53.174;6.614;2023-07-09T11:02:27;43.78;;;24.15;;
61840;SDS011;47773;53.174;6.614;2023-07-09T11:04:57;47.20;;;23.45;;
61840;SDS011;47773;53.174;6.614;2023-07-09T11:10:32;47.70;;;25.65;;
61840;SDS011;47773;53.174;6.614;2023-07-09T11:15:41;43.47;;;23.95;;
61840;SDS011;47773;53.174;6.614;2023-07-09T11:18:11;55.00;;;24.73;;
61840;SDS011;47773;53.174;6.614;2023-07-09T11:20:45;45.78;;;26.23;;
61840;SDS011;47773;53.174;6.614;2023-07-09T11:23:21;54.58;;;27.92;;
61840;SDS011;47773;53.174;6.614;2023-07-09T11:28:34;45.55;;;24.30;;
61840;SDS011;47773;53.174;6.614;2023-07-09T11:33:56;38.75;;;23.77;;
61840;SDS011;47773;53.174;6.614;2023-07-09T11:36:27;48.88;;;25.52;;
61840;SDS011;47773;53.174;6.614;2023-07-09T11:38:55;53.95;;;26.25;;
61840;SDS011;47773;53.174;6.614;2023-07-09T11:41:39;54.83;;;26.33;;
61840;SDS011;47773;53.174;6.614;2023-07-09T11:44:23;49.38;;;24.38;;
61840;SDS011;47773;53.174;6.614;2023-07-09T11:52:11;45.78;;;25.08;;
61840;SDS011;47773;53.174;6.614;2023-07-09T11:54:38;41.25;;;22.55;;
61840;SDS011;47773;53.174;6.614;2023-07-09T11:57:13;47.67;;;21.88;;
61840;SDS011;47773;53.174;6.614;2023-07-09T11:59:40;34.22;;;19.45;;
61840;SDS011;47773;53.174;6.614;2023-07-09T12:02:12;41.53;;;19.50;;
61840;SDS011;47773;53.174;6.614;2023-07-09T12:04:44;41.20;;;23.13;;
61840;SDS011;47773;53.174;6.614;2023-07-09T12:07:14;45.58;;;22.73;;
61840;SDS011;47773;53.174;6.614;2023-07-09T12:09:43;36.30;;;20.92;;
61840;SDS011;47773;53.174;6.614;2023-07-09T12:12:19;41.28;;;20.80;;
61840;SDS011;47773;53.174;6.614;2023-07-09T12:14:49;37.67;;;22.25;;
61840;SDS011;47773;53.174;6.614;2023-07-09T12:17:16;49.10;;;22.95;;
61840;SDS011;47773;53.174;6.614;2023-07-09T12:19:42;38.83;;;21.70;;
61840;SDS011;47773;53.174;6.614;2023-07-09T12:22:21;41.90;;;20.35;;
61840;SDS011;47773;53.174;6.614;2023-07-09T12:24:48;39.75;;;21.65;;
61840;SDS011;47773;53.174;6.614;2023-07-09T12:29:55;38.47;;;21.02;;
61840;SDS011;47773;53.174;6.614;2023-07-09T12:32:22;49.20;;;21.63;;
61840;SDS011;47773;53.174;6.614;2023-07-09T12:34:52;39.95;;;23.30;;
61840;SDS011;47773;53.174;6.614;2023-07-09T12:37:19;38.50;;;19.55;;
61840;SDS011;47773;53.174;6.614;2023-07-09T12:39:49;40.78;;;20.75;;
61840;SDS011;47773;53.174;6.614;2023-07-09T12:42:17;47.80;;;21.45;;
61840;SDS011;47773;53.174;6.614;2023-07-09T12:44:45;45.55;;;21.05;;
61840;SDS011;47773;53.174;6.614;2023-07-09T12:47:14;39.72;;;20.58;;
61840;SDS011;47773;53.174;6.614;2023-07-09T12:49:42;44.22;;;20.80;;
61840;SDS011;47773;53.174;6.614;2023-07-09T12:52:17;40.45;;;20.98;;
61840;SDS011;47773;53.174;6.614;2023-07-09T12:54:58;41.72;;;20.98;;
61840;SDS011;47773;53.174;6.614;2023-07-09T12:57:28;39.00;;;19.05;;
61840;SDS011;47773;53.174;6.614;2023-07-09T12:59:55;44.72;;;21.80;;
61840;SDS011;47773;53.174;6.614;2023-07-09T13:02:25;38.72;;;19.40;;
61840;SDS011;47773;53.174;6.614;2023-07-09T13:05:05;40.47;;;20.27;;
61840;SDS011;47773;53.174;6.614;2023-07-09T13:07:41;40.75;;;20.45;;
61840;SDS011;47773;53.174;6.614;2023-07-09T13:10:29;37.83;;;21.50;;
61840;SDS011;47773;53.174;6.614;2023-07-09T13:13:00;35.55;;;18.40;;
61840;SDS011;47773;53.174;6.614;2023-07-09T13:18:04;36.05;;;19.58;;
61840;SDS011;47773;53.174;6.614;2023-07-09T13:20:32;38.10;;;20.33;;
61840;SDS011;47773;53.174;6.614;2023-07-09T13:23:00;35.20;;;20.23;;
61840;SDS011;47773;53.174;6.614;2023-07-09T13:25:26;46.65;;;20.92;;
61840;SDS011;47773;53.174;6.614;2023-07-09T13:27:53;48.22;;;20.77;;
61840;SDS011;47773;53.174;6.614;2023-07-09T13:30:18;35.05;;;20.17;;
61840;SDS011;47773;53.174;6.614;2023-07-09T13:32:45;39.65;;;20.10;;
61840;SDS011;47773;53.174;6.614;2023-07-09T13:35:16;38.95;;;19.65;;
61840;SDS011;47773;53.174;6.614;2023-07-09T13:37:43;37.97;;;21.00;;
61840;SDS011;47773;53.174;6.614;2023-07-09T13:40:11;40.70;;;19.73;;
61840;SDS011;47773;53.174;6.614;2023-07-09T13:42:39;34.72;;;19.70;;
61840;SDS011;47773;53.174;6.614;2023-07-09T13:45:10;36.17;;;19.25;;
61840;SDS011;47773;53.174;6.614;2023-07-09T13:47:45;38.45;;;19.50;;
61840;SDS011;47773;53.174;6.614;2023-07-09T13:50:12;34.53;;;19.25;;
61840;SDS011;47773;53.174;6.614;2023-07-09T13:52:39;42.78;;;19.35;;
61840;SDS011;47773;53.174;6.614;2023-07-09T13:55:07;37.08;;;19.88;;
61840;SDS011;47773;53.174;6.614;2023-07-09T13:57:42;35.80;;;20.02;;
61840;SDS011;47773;53.174;6.614;2023-07-09T14:00:09;38.72;;;19.25;;
61840;SDS011;47773;53.174;6.614;2023-07-09T14:02:36;43.58;;;19.80;;
61840;SDS011;47773;53.174;6.614;2023-07-09T14:05:04;45.45;;;20.45;;
61840;SDS011;47773;53.174;6.614;2023-07-09T14:07:35;33.25;;;19.40;;
61840;SDS011;47773;53.174;6.614;2023-07-09T14:10:04;37.78;;;19.58;;
61840;SDS011;47773;53.174;6.614;2023-07-09T14:12:32;38.08;;;20.27;;
61840;SDS011;47773;53.174;6.614;2023-07-09T14:15:00;38.38;;;19.90;;
61840;SDS011;47773;53.174;6.614;2023-07-09T14:17:26;30.63;;;18.73;;
61840;SDS011;47773;53.174;6.614;2023-07-09T14:19:53;38.67;;;20.77;;
61840;SDS011;47773;53.174;6.614;2023-07-09T14:22:34;43.53;;;19.17;;
61840;SDS011;47773;53.174;6.614;2023-07-09T14:25:02;37.78;;;20.40;;
61840;SDS011;47773;53.174;6.614;2023-07-09T14:27:29;37.38;;;19.77;;
61840;SDS011;47773;53.174;6.614;2023-07-09T14:29:55;41.20;;;20.95;;
61840;SDS011;47773;53.174;6.614;2023-07-09T14:32:36;39.85;;;19.77;;
61840;SDS011;47773;53.174;6.614;2023-07-09T14:35:09;37.53;;;20.67;;
61840;SDS011;47773;53.174;6.614;2023-07-09T14:37:40;35.10;;;19.58;;
61840;SDS011;47773;53.174;6.614;2023-07-09T14:40:06;43.10;;;19.98;;
61840;SDS011;47773;53.174;6.614;2023-07-09T14:42:32;37.72;;;20.40;;
61840;SDS011;47773;53.174;6.614;2023-07-09T14:44:58;33.15;;;19.83;;
61840;SDS011;47773;53.174;6.614;2023-07-09T14:47:24;37.72;;;19.75;;
61840;SDS011;47773;53.174;6.614;2023-07-09T14:49:50;37.58;;;19.80;;
61840;SDS011;47773;53.174;6.614;2023-07-09T14:52:16;39.15;;;21.20;;
61840;SDS011;47773;53.174;6.614;2023-07-09T14:54:46;39.28;;;20.90;;
61840;SDS011;47773;53.174;6.614;2023-07-09T14:57:20;35.90;;;20.23;;
61840;SDS011;47773;53.174;6.614;2023-07-09T14:59:48;44.22;;;19.83;;
61840;SDS011;47773;53.174;6.614;2023-07-09T15:05:16;38.50;;;20.30;;
61840;SDS011;47773;53.174;6.614;2023-07-09T15:07:43;37.13;;;20.05;;
61840;SDS011;47773;53.174;6.614;2023-07-09T15:10:43;42.45;;;21.27;;
61840;SDS011;47773;53.174;6.614;2023-07-09T15:13:01;40.45;;;19.52;;
61840;SDS011;47773;53.174;6.614;2023-07-09T15:15:29;33.33;;;19.05;;
61840;SDS011;47773;53.174;6.614;2023-07-09T15:17:56;34.03;;;19.38;;
61840;SDS011;47773;53.174;6.614;2023-07-09T15:20:25;47.65;;;17.23;;
61840;SDS011;47773;53.174;6.614;2023-07-09T15:22:54;27.65;;;16.98;;
61840;SDS011;47773;53.174;6.614;2023-07-09T15:25:23;36.67;;;18.70;;
61840;SDS011;47773;53.174;6.614;2023-07-09T15:27:50;52.30;;;19.45;;